Hurstpierpoint, United Kingdom
Current Conditions -  °F | °C
As of 8:20 AM on Sunday 23 Nov 2014 (Local Time) from EGKK Reporting Station
Light Rain Light Rain  
Wind Chill: 50°   Ceiling: 900
Heat Index: 50°   Visibility: 6mi
Dew Point: 46°   Wind: 10mph
Humidity: 87%   Direction: 350°N
Pressure: 29.97"   Gusts: NA
Location:  50.93°N, 0.18°W
Report Text: EGKK 230820Z 35009KT 310V020 9999 -RA BKN009 10/08 Q1015
Loading
Personal Weather Stations






























Interactive Weather Map New forecast layout! Learn more

10-Day Weather Forecast

Advertisements
Track Severe Weather on mobile